sensor_id;sensor_type;location;lat;lon;timestamp;temperature;humidity
53268;DHT22;39156;51.176;6.738;2023-12-29T00:00:35;10.40;77.10
53268;DHT22;39156;51.176;6.738;2023-12-29T00:03:00;10.30;77.00
53268;DHT22;39156;51.176;6.738;2023-12-29T00:05:26;10.40;76.70
53268;DHT22;39156;51.176;6.738;2023-12-29T00:07:52;10.50;76.70
53268;DHT22;39156;51.176;6.738;2023-12-29T00:10:18;10.40;76.80
53268;DHT22;39156;51.176;6.738;2023-12-29T00:12:44;10.40;76.70
53268;DHT22;39156;51.176;6.738;2023-12-29T00:15:09;10.50;76.70
53268;DHT22;39156;51.176;6.738;2023-12-29T00:17:35;10.50;76.50
53268;DHT22;39156;51.176;6.738;2023-12-29T00:20:06;10.50;76.60
53268;DHT22;39156;51.176;6.738;2023-12-29T00:22:35;10.50;76.50
53268;DHT22;39156;51.176;6.738;2023-12-29T00:25:00;10.50;76.70
53268;DHT22;39156;51.176;6.738;2023-12-29T00:27:26;10.50;76.70
53268;DHT22;39156;51.176;6.738;2023-12-29T00:29:52;10.50;76.90
53268;DHT22;39156;51.176;6.738;2023-12-29T00:32:17;10.50;76.80
53268;DHT22;39156;51.176;6.738;2023-12-29T00:34:43;10.50;76.80
53268;DHT22;39156;51.176;6.738;2023-12-29T00:37:08;10.40;76.70
53268;DHT22;39156;51.176;6.738;2023-12-29T00:39:34;10.50;76.60
53268;DHT22;39156;51.176;6.738;2023-12-29T00:42:04;10.50;76.70
53268;DHT22;39156;51.176;6.738;2023-12-29T00:44:31;10.50;76.60
53268;DHT22;39156;51.176;6.738;2023-12-29T00:46:56;10.50;76.70
53268;DHT22;39156;51.176;6.738;2023-12-29T00:49:22;10.50;76.90
53268;DHT22;39156;51.176;6.738;2023-12-29T00:51:48;10.50;76.70
53268;DHT22;39156;51.176;6.738;2023-12-29T00:54:13;10.50;76.60
53268;DHT22;39156;51.176;6.738;2023-12-29T00:56:39;10.70;76.50
53268;DHT22;39156;51.176;6.738;2023-12-29T00:59:05;10.60;76.50
53268;DHT22;39156;51.176;6.738;2023-12-29T01:01:34;10.50;76.40
53268;DHT22;39156;51.176;6.738;2023-12-29T01:04:00;10.60;76.60
53268;DHT22;39156;51.176;6.738;2023-12-29T01:06:26;10.70;76.60
53268;DHT22;39156;51.176;6.738;2023-12-29T01:08:52;10.70;76.50
53268;DHT22;39156;51.176;6.738;2023-12-29T01:11:17;10.50;76.50
53268;DHT22;39156;51.176;6.738;2023-12-29T01:13:43;10.50;76.40
53268;DHT22;39156;51.176;6.738;2023-12-29T01:16:08;10.70;76.50
53268;DHT22;39156;51.176;6.738;2023-12-29T01:18:34;10.60;76.50
53268;DHT22;39156;51.176;6.738;2023-12-29T01:21:00;10.60;76.60
53268;DHT22;39156;51.176;6.738;2023-12-29T01:23:25;10.50;76.60
53268;DHT22;39156;51.176;6.738;2023-12-29T01:25:51;10.50;76.70
53268;DHT22;39156;51.176;6.738;2023-12-29T01:28:16;10.50;76.60
53268;DHT22;39156;51.176;6.738;2023-12-29T01:30:42;10.50;76.50
53268;DHT22;39156;51.176;6.738;2023-12-29T01:33:07;10.60;76.70
53268;DHT22;39156;51.176;6.738;2023-12-29T01:35:33;10.60;76.70
53268;DHT22;39156;51.176;6.738;2023-12-29T01:37:59;10.50;76.60
53268;DHT22;39156;51.176;6.738;2023-12-29T01:40:26;10.60;76.80
53268;DHT22;39156;51.176;6.738;2023-12-29T01:42:51;10.60;76.80
53268;DHT22;39156;51.176;6.738;2023-12-29T01:45:23;10.50;76.50
53268;DHT22;39156;51.176;6.738;2023-12-29T01:47:51;10.60;76.90
53268;DHT22;39156;51.176;6.738;2023-12-29T01:50:18;10.60;76.90
53268;DHT22;39156;51.176;6.738;2023-12-29T01:52:44;10.50;76.90
53268;DHT22;39156;51.176;6.738;2023-12-29T01:55:11;10.60;76.90
53268;DHT22;39156;51.176;6.738;2023-12-29T01:57:38;10.50;77.00
53268;DHT22;39156;51.176;6.738;2023-12-29T02:00:04;10.50;77.00
53268;DHT22;39156;51.176;6.738;2023-12-29T02:02:31;10.50;77.00
53268;DHT22;39156;51.176;6.738;2023-12-29T02:04:57;10.50;77.10
53268;DHT22;39156;51.176;6.738;2023-12-29T02:07:23;10.60;77.10
53268;DHT22;39156;51.176;6.738;2023-12-29T02:09:49;10.60;77.70
53268;DHT22;39156;51.176;6.738;2023-12-29T02:12:16;10.50;77.10
53268;DHT22;39156;51.176;6.738;2023-12-29T02:14:42;10.50;77.20
53268;DHT22;39156;51.176;6.738;2023-12-29T02:17:15;10.50;77.20
53268;DHT22;39156;51.176;6.738;2023-12-29T02:19:45;10.50;77.30
53268;DHT22;39156;51.176;6.738;2023-12-29T02:22:12;10.40;77.50
53268;DHT22;39156;51.176;6.738;2023-12-29T02:24:38;10.50;77.90
53268;DHT22;39156;51.176;6.738;2023-12-29T02:27:11;10.50;78.10
53268;DHT22;39156;51.176;6.738;2023-12-29T02:29:37;10.40;78.10
53268;DHT22;39156;51.176;6.738;2023-12-29T02:32:04;10.40;78.20
53268;DHT22;39156;51.176;6.738;2023-12-29T02:34:31;10.40;78.30
53268;DHT22;39156;51.176;6.738;2023-12-29T02:36:57;10.40;78.60
53268;DHT22;39156;51.176;6.738;2023-12-29T02:39:24;10.50;79.00
53268;DHT22;39156;51.176;6.738;2023-12-29T02:41:49;10.40;78.90
53268;DHT22;39156;51.176;6.738;2023-12-29T02:44:15;10.40;79.10
53268;DHT22;39156;51.176;6.738;2023-12-29T02:46:41;10.30;79.00
53268;DHT22;39156;51.176;6.738;2023-12-29T02:49:06;10.40;79.50
53268;DHT22;39156;51.176;6.738;2023-12-29T02:51:36;10.30;79.50
53268;DHT22;39156;51.176;6.738;2023-12-29T02:54:02;10.30;79.50
53268;DHT22;39156;51.176;6.738;2023-12-29T02:56:28;10.30;79.80
53268;DHT22;39156;51.176;6.738;2023-12-29T02:58:53;10.30;79.60
53268;DHT22;39156;51.176;6.738;2023-12-29T03:01:19;10.20;79.70
53268;DHT22;39156;51.176;6.738;2023-12-29T03:03:44;10.30;79.70
53268;DHT22;39156;51.176;6.738;2023-12-29T03:06:10;10.20;79.90
53268;DHT22;39156;51.176;6.738;2023-12-29T03:08:36;10.20;79.90
53268;DHT22;39156;51.176;6.738;2023-12-29T03:11:01;10.20;79.80
53268;DHT22;39156;51.176;6.738;2023-12-29T03:13:27;10.20;79.80
53268;DHT22;39156;51.176;6.738;2023-12-29T03:15:52;10.30;80.00
53268;DHT22;39156;51.176;6.738;2023-12-29T03:18:18;10.30;80.00
53268;DHT22;39156;51.176;6.738;2023-12-29T03:20:43;10.20;80.10
53268;DHT22;39156;51.176;6.738;2023-12-29T03:23:09;10.20;80.10
53268;DHT22;39156;51.176;6.738;2023-12-29T03:25:35;10.20;80.10
53268;DHT22;39156;51.176;6.738;2023-12-29T03:28:00;10.20;80.00
53268;DHT22;39156;51.176;6.738;2023-12-29T03:30:26;10.20;80.00
53268;DHT22;39156;51.176;6.738;2023-12-29T03:32:51;10.20;80.00
53268;DHT22;39156;51.176;6.738;2023-12-29T03:35:17;10.10;80.00
53268;DHT22;39156;51.176;6.738;2023-12-29T03:37:43;10.30;80.00
53268;DHT22;39156;51.176;6.738;2023-12-29T03:40:08;10.30;79.90
53268;DHT22;39156;51.176;6.738;2023-12-29T03:42:34;10.20;79.90
53268;DHT22;39156;51.176;6.738;2023-12-29T03:45:00;10.20;79.80
53268;DHT22;39156;51.176;6.738;2023-12-29T03:47:26;10.20;79.80
53268;DHT22;39156;51.176;6.738;2023-12-29T03:49:51;10.30;79.80
53268;DHT22;39156;51.176;6.738;2023-12-29T03:52:17;10.10;79.50
53268;DHT22;39156;51.176;6.738;2023-12-29T03:54:42;10.20;79.60
53268;DHT22;39156;51.176;6.738;2023-12-29T03:57:08;10.20;79.50
53268;DHT22;39156;51.176;6.738;2023-12-29T03:59:36;10.30;79.50
53268;DHT22;39156;51.176;6.738;2023-12-29T04:02:02;10.30;79.50
53268;DHT22;39156;51.176;6.738;2023-12-29T04:04:28;10.40;79.60
53268;DHT22;39156;51.176;6.738;2023-12-29T04:06:54;10.30;79.40
53268;DHT22;39156;51.176;6.738;2023-12-29T04:09:19;10.20;79.40
53268;DHT22;39156;51.176;6.738;2023-12-29T04:11:45;10.40;79.50
53268;DHT22;39156;51.176;6.738;2023-12-29T04:14:11;10.40;79.50
53268;DHT22;39156;51.176;6.738;2023-12-29T04:16:38;10.40;79.40
53268;DHT22;39156;51.176;6.738;2023-12-29T04:19:04;10.40;79.30
53268;DHT22;39156;51.176;6.738;2023-12-29T04:21:30;10.40;79.50
53268;DHT22;39156;51.176;6.738;2023-12-29T04:23:56;10.40;79.40
53268;DHT22;39156;51.176;6.738;2023-12-29T04:26:21;10.30;79.50
53268;DHT22;39156;51.176;6.738;2023-12-29T04:28:47;10.40;79.60
53268;DHT22;39156;51.176;6.738;2023-12-29T04:31:12;10.40;79.60
53268;DHT22;39156;51.176;6.738;2023-12-29T04:33:38;10.50;79.70
53268;DHT22;39156;51.176;6.738;2023-12-29T04:36:04;10.40;79.70
53268;DHT22;39156;51.176;6.738;2023-12-29T04:38:29;10.40;79.70
53268;DHT22;39156;51.176;6.738;2023-12-29T04:40:55;10.40;79.60
53268;DHT22;39156;51.176;6.738;2023-12-29T04:43:21;10.40;79.60
53268;DHT22;39156;51.176;6.738;2023-12-29T04:45:46;10.40;79.50
53268;DHT22;39156;51.176;6.738;2023-12-29T04:48:12;10.40;79.60
53268;DHT22;39156;51.176;6.738;2023-12-29T04:50:37;10.30;79.50
53268;DHT22;39156;51.176;6.738;2023-12-29T04:53:03;10.20;79.50
53268;DHT22;39156;51.176;6.738;2023-12-29T04:55:29;10.30;79.50
53268;DHT22;39156;51.176;6.738;2023-12-29T04:57:54;10.20;79.40
53268;DHT22;39156;51.176;6.738;2023-12-29T05:00:20;10.10;79.40
53268;DHT22;39156;51.176;6.738;2023-12-29T05:02:45;10.20;79.50
53268;DHT22;39156;51.176;6.738;2023-12-29T05:05:11;10.20;79.40
53268;DHT22;39156;51.176;6.738;2023-12-29T05:07:37;10.10;79.40
53268;DHT22;39156;51.176;6.738;2023-12-29T05:10:02;10.20;79.50
53268;DHT22;39156;51.176;6.738;2023-12-29T05:12:28;10.10;79.40
53268;DHT22;39156;51.176;6.738;2023-12-29T05:14:55;10.10;79.40
53268;DHT22;39156;51.176;6.738;2023-12-29T05:17:20;10.10;79.40
53268;DHT22;39156;51.176;6.738;2023-12-29T05:19:46;10.10;79.50
53268;DHT22;39156;51.176;6.738;2023-12-29T05:22:12;10.10;79.50
53268;DHT22;39156;51.176;6.738;2023-12-29T05:24:41;10.20;79.60
53268;DHT22;39156;51.176;6.738;2023-12-29T05:27:07;10.00;79.40
53268;DHT22;39156;51.176;6.738;2023-12-29T05:29:33;10.20;79.50
53268;DHT22;39156;51.176;6.738;2023-12-29T05:31:58;10.10;79.40
53268;DHT22;39156;51.176;6.738;2023-12-29T05:34:24;10.10;79.50
53268;DHT22;39156;51.176;6.738;2023-12-29T05:36:50;10.10;79.50
53268;DHT22;39156;51.176;6.738;2023-12-29T05:39:15;10.00;79.30
53268;DHT22;39156;51.176;6.738;2023-12-29T05:41:41;10.10;79.20
53268;DHT22;39156;51.176;6.738;2023-12-29T05:44:06;10.20;79.40
53268;DHT22;39156;51.176;6.738;2023-12-29T05:46:32;10.00;79.20
53268;DHT22;39156;51.176;6.738;2023-12-29T05:48:57;10.10;79.30
53268;DHT22;39156;51.176;6.738;2023-12-29T05:51:24;10.00;79.10
53268;DHT22;39156;51.176;6.738;2023-12-29T05:53:49;10.00;79.10
53268;DHT22;39156;51.176;6.738;2023-12-29T05:56:15;10.00;79.10
53268;DHT22;39156;51.176;6.738;2023-12-29T05:58:41;10.00;78.90
53268;DHT22;39156;51.176;6.738;2023-12-29T06:01:08;10.10;79.10
53268;DHT22;39156;51.176;6.738;2023-12-29T06:03:34;10.10;79.10
53268;DHT22;39156;51.176;6.738;2023-12-29T06:05:59;10.00;79.10
53268;DHT22;39156;51.176;6.738;2023-12-29T06:08:25;9.90;79.00
53268;DHT22;39156;51.176;6.738;2023-12-29T06:10:51;10.00;79.10
53268;DHT22;39156;51.176;6.738;2023-12-29T06:13:16;10.00;79.20
53268;DHT22;39156;51.176;6.738;2023-12-29T06:15:42;9.90;78.90
53268;DHT22;39156;51.176;6.738;2023-12-29T06:18:07;9.90;78.90
53268;DHT22;39156;51.176;6.738;2023-12-29T06:20:33;9.90;79.10
53268;DHT22;39156;51.176;6.738;2023-12-29T06:22:59;9.90;79.10
53268;DHT22;39156;51.176;6.738;2023-12-29T06:25:24;9.90;79.00
53268;DHT22;39156;51.176;6.738;2023-12-29T06:27:50;9.80;78.90
53268;DHT22;39156;51.176;6.738;2023-12-29T06:30:16;10.00;79.80
53268;DHT22;39156;51.176;6.738;2023-12-29T06:32:42;10.00;79.10
53268;DHT22;39156;51.176;6.738;2023-12-29T06:35:07;9.90;79.10
53268;DHT22;39156;51.176;6.738;2023-12-29T06:37:36;9.90;79.30
53268;DHT22;39156;51.176;6.738;2023-12-29T06:40:03;10.00;79.10
53268;DHT22;39156;51.176;6.738;2023-12-29T06:42:29;10.00;79.10
53268;DHT22;39156;51.176;6.738;2023-12-29T06:44:54;10.00;78.90
53268;DHT22;39156;51.176;6.738;2023-12-29T06:47:20;10.00;78.90
53268;DHT22;39156;51.176;6.738;2023-12-29T06:49:46;10.10;78.90
53268;DHT22;39156;51.176;6.738;2023-12-29T06:52:11;10.20;78.80
53268;DHT22;39156;51.176;6.738;2023-12-29T06:54:37;10.00;78.80
53268;DHT22;39156;51.176;6.738;2023-12-29T06:57:02;10.10;79.00
53268;DHT22;39156;51.176;6.738;2023-12-29T06:59:28;10.20;78.90
53268;DHT22;39156;51.176;6.738;2023-12-29T07:01:54;10.10;79.10
53268;DHT22;39156;51.176;6.738;2023-12-29T07:04:19;10.20;78.80
53268;DHT22;39156;51.176;6.738;2023-12-29T07:06:45;10.20;79.00
53268;DHT22;39156;51.176;6.738;2023-12-29T07:09:10;10.10;79.00
53268;DHT22;39156;51.176;6.738;2023-12-29T07:11:36;10.20;79.10
53268;DHT22;39156;51.176;6.738;2023-12-29T07:14:02;10.20;79.10
53268;DHT22;39156;51.176;6.738;2023-12-29T07:16:28;10.20;79.00
53268;DHT22;39156;51.176;6.738;2023-12-29T07:18:53;10.20;79.10
53268;DHT22;39156;51.176;6.738;2023-12-29T07:21:19;10.30;79.10
53268;DHT22;39156;51.176;6.738;2023-12-29T07:23:45;10.30;79.00
53268;DHT22;39156;51.176;6.738;2023-12-29T07:26:10;10.30;79.20
53268;DHT22;39156;51.176;6.738;2023-12-29T07:28:36;10.30;79.10
53268;DHT22;39156;51.176;6.738;2023-12-29T07:31:02;10.40;79.20
53268;DHT22;39156;51.176;6.738;2023-12-29T07:33:27;10.40;79.30
53268;DHT22;39156;51.176;6.738;2023-12-29T07:35:53;10.40;79.10
53268;DHT22;39156;51.176;6.738;2023-12-29T07:38:19;10.50;79.20
53268;DHT22;39156;51.176;6.738;2023-12-29T07:40:44;10.40;79.30
53268;DHT22;39156;51.176;6.738;2023-12-29T07:43:10;10.50;79.40
53268;DHT22;39156;51.176;6.738;2023-12-29T07:45:36;10.50;79.50
53268;DHT22;39156;51.176;6.738;2023-12-29T07:48:02;10.40;79.60
53268;DHT22;39156;51.176;6.738;2023-12-29T07:50:28;10.40;79.70
53268;DHT22;39156;51.176;6.738;2023-12-29T07:52:54;10.40;79.90
53268;DHT22;39156;51.176;6.738;2023-12-29T07:55:19;10.50;80.30
53268;DHT22;39156;51.176;6.738;2023-12-29T07:57:45;10.50;80.30
53268;DHT22;39156;51.176;6.738;2023-12-29T08:00:14;10.60;80.70
53268;DHT22;39156;51.176;6.738;2023-12-29T08:02:40;10.40;80.80
53268;DHT22;39156;51.176;6.738;2023-12-29T08:05:06;10.40;81.30
53268;DHT22;39156;51.176;6.738;2023-12-29T08:07:35;10.40;81.60
53268;DHT22;39156;51.176;6.738;2023-12-29T08:10:05;10.40;81.90
53268;DHT22;39156;51.176;6.738;2023-12-29T08:12:32;10.30;82.00
53268;DHT22;39156;51.176;6.738;2023-12-29T08:14:59;10.30;82.30
53268;DHT22;39156;51.176;6.738;2023-12-29T08:17:25;10.30;82.50
53268;DHT22;39156;51.176;6.738;2023-12-29T08:19:51;10.30;82.50
53268;DHT22;39156;51.176;6.738;2023-12-29T08:22:18;10.30;82.40
53268;DHT22;39156;51.176;6.738;2023-12-29T08:24:45;10.30;82.10
53268;DHT22;39156;51.176;6.738;2023-12-29T08:27:13;10.20;82.60
53268;DHT22;39156;51.176;6.738;2023-12-29T08:29:39;10.20;83.10
53268;DHT22;39156;51.176;6.738;2023-12-29T08:32:05;10.20;84.00
53268;DHT22;39156;51.176;6.738;2023-12-29T08:34:31;10.10;83.90
53268;DHT22;39156;51.176;6.738;2023-12-29T08:36:57;10.20;84.10
53268;DHT22;39156;51.176;6.738;2023-12-29T08:39:22;10.00;84.50
53268;DHT22;39156;51.176;6.738;2023-12-29T08:41:48;10.10;84.50
53268;DHT22;39156;51.176;6.738;2023-12-29T08:44:16;10.00;84.70
53268;DHT22;39156;51.176;6.738;2023-12-29T08:46:42;10.00;85.40
53268;DHT22;39156;51.176;6.738;2023-12-29T08:49:08;10.00;85.60
53268;DHT22;39156;51.176;6.738;2023-12-29T08:51:33;9.90;85.80
53268;DHT22;39156;51.176;6.738;2023-12-29T08:53:59;9.80;85.90
53268;DHT22;39156;51.176;6.738;2023-12-29T08:56:25;9.90;86.20
53268;DHT22;39156;51.176;6.738;2023-12-29T08:58:51;9.80;86.00
53268;DHT22;39156;51.176;6.738;2023-12-29T09:01:16;9.70;86.30
53268;DHT22;39156;51.176;6.738;2023-12-29T09:03:42;9.70;85.90
53268;DHT22;39156;51.176;6.738;2023-12-29T09:06:07;9.80;86.40
53268;DHT22;39156;51.176;6.738;2023-12-29T09:08:34;9.70;86.00
53268;DHT22;39156;51.176;6.738;2023-12-29T09:11:00;9.70;86.00
53268;DHT22;39156;51.176;6.738;2023-12-29T09:13:26;9.80;87.30
53268;DHT22;39156;51.176;6.738;2023-12-29T09:15:53;9.70;86.90
53268;DHT22;39156;51.176;6.738;2023-12-29T09:18:19;9.70;87.60
53268;DHT22;39156;51.176;6.738;2023-12-29T09:20:45;9.70;86.80
53268;DHT22;39156;51.176;6.738;2023-12-29T09:23:10;9.70;87.10
53268;DHT22;39156;51.176;6.738;2023-12-29T09:25:36;9.70;87.30
53268;DHT22;39156;51.176;6.738;2023-12-29T09:28:02;9.80;86.70
53268;DHT22;39156;51.176;6.738;2023-12-29T09:30:28;9.70;87.00
53268;DHT22;39156;51.176;6.738;2023-12-29T09:32:53;9.70;87.50
53268;DHT22;39156;51.176;6.738;2023-12-29T09:35:19;9.70;87.40
53268;DHT22;39156;51.176;6.738;2023-12-29T09:37:47;9.70;87.30
53268;DHT22;39156;51.176;6.738;2023-12-29T09:40:14;9.70;87.30
53268;DHT22;39156;51.176;6.738;2023-12-29T09:42:40;9.80;87.20
53268;DHT22;39156;51.176;6.738;2023-12-29T09:45:09;9.70;87.10
53268;DHT22;39156;51.176;6.738;2023-12-29T09:47:38;9.70;87.20
53268;DHT22;39156;51.176;6.738;2023-12-29T09:50:05;9.70;87.50
53268;DHT22;39156;51.176;6.738;2023-12-29T09:52:31;9.80;87.50
53268;DHT22;39156;51.176;6.738;2023-12-29T09:54:57;9.80;87.00
53268;DHT22;39156;51.176;6.738;2023-12-29T09:57:22;9.80;87.60
53268;DHT22;39156;51.176;6.738;2023-12-29T09:59:50;9.80;87.60
53268;DHT22;39156;51.176;6.738;2023-12-29T10:02:20;9.90;87.70
53268;DHT22;39156;51.176;6.738;2023-12-29T10:04:47;9.90;87.20
53268;DHT22;39156;51.176;6.738;2023-12-29T10:07:15;10.00;87.30
53268;DHT22;39156;51.176;6.738;2023-12-29T10:09:45;9.90;87.70
53268;DHT22;39156;51.176;6.738;2023-12-29T10:12:11;10.00;87.00
53268;DHT22;39156;51.176;6.738;2023-12-29T10:14:46;10.10;86.80
53268;DHT22;39156;51.176;6.738;2023-12-29T10:17:51;10.00;87.00
53268;DHT22;39156;51.176;6.738;2023-12-29T10:23:49;10.00;87.10
53268;DHT22;39156;51.176;6.738;2023-12-29T10:26:17;10.10;87.10
53268;DHT22;39156;51.176;6.738;2023-12-29T10:28:43;10.20;87.40
53268;DHT22;39156;51.176;6.738;2023-12-29T10:31:09;10.20;86.90
53268;DHT22;39156;51.176;6.738;2023-12-29T10:33:39;10.20;87.20
53268;DHT22;39156;51.176;6.738;2023-12-29T10:36:04;10.20;86.80
53268;DHT22;39156;51.176;6.738;2023-12-29T10:38:32;10.20;86.80
53268;DHT22;39156;51.176;6.738;2023-12-29T10:41:14;10.40;86.50
53268;DHT22;39156;51.176;6.738;2023-12-29T10:43:41;10.20;86.80
53268;DHT22;39156;51.176;6.738;2023-12-29T10:46:09;10.30;87.20
53268;DHT22;39156;51.176;6.738;2023-12-29T10:48:36;10.40;87.10
53268;DHT22;39156;51.176;6.738;2023-12-29T10:51:02;10.30;86.40
53268;DHT22;39156;51.176;6.738;2023-12-29T10:53:29;10.30;86.50
53268;DHT22;39156;51.176;6.738;2023-12-29T10:55:55;10.40;86.30
53268;DHT22;39156;51.176;6.738;2023-12-29T10:58:23;10.30;85.20
53268;DHT22;39156;51.176;6.738;2023-12-29T11:00:50;10.40;86.00
53268;DHT22;39156;51.176;6.738;2023-12-29T11:03:17;10.40;85.90
53268;DHT22;39156;51.176;6.738;2023-12-29T11:05:42;10.40;86.20
53268;DHT22;39156;51.176;6.738;2023-12-29T11:08:15;10.50;86.10
53268;DHT22;39156;51.176;6.738;2023-12-29T11:10:42;10.50;86.80
53268;DHT22;39156;51.176;6.738;2023-12-29T11:13:10;10.60;86.10
53268;DHT22;39156;51.176;6.738;2023-12-29T11:15:36;10.70;86.60
53268;DHT22;39156;51.176;6.738;2023-12-29T11:18:03;10.80;86.50
53268;DHT22;39156;51.176;6.738;2023-12-29T11:20:29;10.80;86.50
53268;DHT22;39156;51.176;6.738;2023-12-29T11:22:55;11.00;87.00
53268;DHT22;39156;51.176;6.738;2023-12-29T11:25:21;10.90;86.30
53268;DHT22;39156;51.176;6.738;2023-12-29T11:27:46;11.00;86.10
53268;DHT22;39156;51.176;6.738;2023-12-29T11:30:14;11.00;86.10
53268;DHT22;39156;51.176;6.738;2023-12-29T11:35:33;11.20;86.00
53268;DHT22;39156;51.176;6.738;2023-12-29T11:40:48;11.30;85.70
53268;DHT22;39156;51.176;6.738;2023-12-29T11:43:17;11.20;85.40
53268;DHT22;39156;51.176;6.738;2023-12-29T11:45:43;11.20;85.30
53268;DHT22;39156;51.176;6.738;2023-12-29T11:48:10;11.20;85.20
53268;DHT22;39156;51.176;6.738;2023-12-29T11:50:37;11.20;85.10
53268;DHT22;39156;51.176;6.738;2023-12-29T11:53:05;11.20;85.00
53268;DHT22;39156;51.176;6.738;2023-12-29T11:55:35;11.30;85.00
53268;DHT22;39156;51.176;6.738;2023-12-29T11:58:02;11.20;85.00
53268;DHT22;39156;51.176;6.738;2023-12-29T12:00:45;11.20;84.90
53268;DHT22;39156;51.176;6.738;2023-12-29T12:03:15;11.20;85.10
53268;DHT22;39156;51.176;6.738;2023-12-29T12:05:44;11.20;84.60
53268;DHT22;39156;51.176;6.738;2023-12-29T12:08:10;11.10;84.40
53268;DHT22;39156;51.176;6.738;2023-12-29T12:10:52;12.00;84.70
53268;DHT22;39156;51.176;6.738;2023-12-29T12:19:16;10.90;85.30
53268;DHT22;39156;51.176;6.738;2023-12-29T12:21:46;10.90;85.30
53268;DHT22;39156;51.176;6.738;2023-12-29T12:24:15;10.90;85.50
53268;DHT22;39156;51.176;6.738;2023-12-29T12:26:45;10.90;85.50
53268;DHT22;39156;51.176;6.738;2023-12-29T12:29:12;10.90;85.50
53268;DHT22;39156;51.176;6.738;2023-12-29T12:31:55;10.90;85.50
53268;DHT22;39156;51.176;6.738;2023-12-29T12:34:21;10.90;85.70
53268;DHT22;39156;51.176;6.738;2023-12-29T12:36:52;11.00;85.70
53268;DHT22;39156;51.176;6.738;2023-12-29T12:39:21;10.90;85.40
53268;DHT22;39156;51.176;6.738;2023-12-29T12:41:47;11.00;85.40
53268;DHT22;39156;51.176;6.738;2023-12-29T12:44:13;11.10;85.60
53268;DHT22;39156;51.176;6.738;2023-12-29T12:46:49;11.00;85.70
53268;DHT22;39156;51.176;6.738;2023-12-29T12:49:19;11.00;85.50
53268;DHT22;39156;51.176;6.738;2023-12-29T12:51:44;11.10;86.10
53268;DHT22;39156;51.176;6.738;2023-12-29T12:54:10;11.00;86.20
53268;DHT22;39156;51.176;6.738;2023-12-29T12:56:37;11.00;86.50
53268;DHT22;39156;51.176;6.738;2023-12-29T12:59:03;10.70;86.30
53268;DHT22;39156;51.176;6.738;2023-12-29T13:01:29;11.00;86.40
53268;DHT22;39156;51.176;6.738;2023-12-29T13:03:56;11.00;86.60
53268;DHT22;39156;51.176;6.738;2023-12-29T13:06:22;10.80;86.40
53268;DHT22;39156;51.176;6.738;2023-12-29T13:08:51;10.80;86.80
53268;DHT22;39156;51.176;6.738;2023-12-29T13:11:19;10.80;86.30
53268;DHT22;39156;51.176;6.738;2023-12-29T13:13:50;10.80;86.30
53268;DHT22;39156;51.176;6.738;2023-12-29T13:16:34;10.90;86.10
53268;DHT22;39156;51.176;6.738;2023-12-29T13:19:17;10.90;86.30
53268;DHT22;39156;51.176;6.738;2023-12-29T13:21:50;10.80;86.30
53268;DHT22;39156;51.176;6.738;2023-12-29T13:24:16;10.90;86.00
53268;DHT22;39156;51.176;6.738;2023-12-29T13:26:45;10.80;85.70
53268;DHT22;39156;51.176;6.738;2023-12-29T13:29:18;10.90;86.40
53268;DHT22;39156;51.176;6.738;2023-12-29T13:31:45;10.90;85.60
53268;DHT22;39156;51.176;6.738;2023-12-29T13:34:16;10.90;85.60
53268;DHT22;39156;51.176;6.738;2023-12-29T13:36:53;10.90;85.70
53268;DHT22;39156;51.176;6.738;2023-12-29T13:39:26;10.80;85.60
53268;DHT22;39156;51.176;6.738;2023-12-29T13:42:17;10.90;85.50
53268;DHT22;39156;51.176;6.738;2023-12-29T13:44:43;10.90;85.40
53268;DHT22;39156;51.176;6.738;2023-12-29T13:47:09;11.00;85.40
53268;DHT22;39156;51.176;6.738;2023-12-29T13:49:36;10.90;85.30
53268;DHT22;39156;51.176;6.738;2023-12-29T13:52:02;10.90;85.20
53268;DHT22;39156;51.176;6.738;2023-12-29T13:54:29;10.90;85.10
53268;DHT22;39156;51.176;6.738;2023-12-29T13:56:55;10.90;85.10
53268;DHT22;39156;51.176;6.738;2023-12-29T13:59:30;10.90;85.10
53268;DHT22;39156;51.176;6.738;2023-12-29T14:05:10;11.00;85.00
53268;DHT22;39156;51.176;6.738;2023-12-29T14:07:37;11.00;85.00
53268;DHT22;39156;51.176;6.738;2023-12-29T14:10:09;10.90;84.90
53268;DHT22;39156;51.176;6.738;2023-12-29T14:12:35;11.00;84.90
53268;DHT22;39156;51.176;6.738;2023-12-29T14:15:04;10.90;84.80
53268;DHT22;39156;51.176;6.738;2023-12-29T14:17:30;10.90;84.80
53268;DHT22;39156;51.176;6.738;2023-12-29T14:19:55;10.90;84.60
53268;DHT22;39156;51.176;6.738;2023-12-29T14:22:25;10.90;84.70
53268;DHT22;39156;51.176;6.738;2023-12-29T14:25:04;10.80;84.70
53268;DHT22;39156;51.176;6.738;2023-12-29T14:27:30;10.80;84.50
53268;DHT22;39156;51.176;6.738;2023-12-29T14:29:56;10.80;84.20
53268;DHT22;39156;51.176;6.738;2023-12-29T14:32:22;10.80;84.20
53268;DHT22;39156;51.176;6.738;2023-12-29T14:34:49;10.80;84.30
53268;DHT22;39156;51.176;6.738;2023-12-29T14:37:20;10.70;84.10
53268;DHT22;39156;51.176;6.738;2023-12-29T14:39:52;10.70;84.00
53268;DHT22;39156;51.176;6.738;2023-12-29T14:42:17;10.60;83.90
53268;DHT22;39156;51.176;6.738;2023-12-29T14:44:46;10.60;83.90
53268;DHT22;39156;51.176;6.738;2023-12-29T14:47:14;10.50;84.00
53268;DHT22;39156;51.176;6.738;2023-12-29T14:49:40;10.50;84.30
53268;DHT22;39156;51.176;6.738;2023-12-29T14:52:05;10.70;84.40
53268;DHT22;39156;51.176;6.738;2023-12-29T14:54:31;10.60;84.60
53268;DHT22;39156;51.176;6.738;2023-12-29T14:56:57;10.40;84.50
53268;DHT22;39156;51.176;6.738;2023-12-29T14:59:22;10.50;84.50
53268;DHT22;39156;51.176;6.738;2023-12-29T15:01:48;10.40;84.70
53268;DHT22;39156;51.176;6.738;2023-12-29T15:04:13;10.30;84.90
53268;DHT22;39156;51.176;6.738;2023-12-29T15:06:40;10.40;85.10
53268;DHT22;39156;51.176;6.738;2023-12-29T15:09:05;10.30;85.30
53268;DHT22;39156;51.176;6.738;2023-12-29T15:11:33;10.30;85.40
53268;DHT22;39156;51.176;6.738;2023-12-29T15:13:58;10.40;85.80
53268;DHT22;39156;51.176;6.738;2023-12-29T15:16:24;10.30;86.00
53268;DHT22;39156;51.176;6.738;2023-12-29T15:18:49;10.40;86.20
53268;DHT22;39156;51.176;6.738;2023-12-29T15:21:15;10.30;86.60
53268;DHT22;39156;51.176;6.738;2023-12-29T15:23:40;10.40;86.50
53268;DHT22;39156;51.176;6.738;2023-12-29T15:26:06;10.30;85.80
53268;DHT22;39156;51.176;6.738;2023-12-29T15:28:32;10.40;86.00
53268;DHT22;39156;51.176;6.738;2023-12-29T15:30:57;10.40;86.40
53268;DHT22;39156;51.176;6.738;2023-12-29T15:33:23;10.40;86.30
53268;DHT22;39156;51.176;6.738;2023-12-29T15:35:50;10.40;86.30
53268;DHT22;39156;51.176;6.738;2023-12-29T15:38:16;10.40;86.60
53268;DHT22;39156;51.176;6.738;2023-12-29T15:40:42;10.40;85.90
53268;DHT22;39156;51.176;6.738;2023-12-29T15:43:07;10.50;86.10
53268;DHT22;39156;51.176;6.738;2023-12-29T15:45:33;10.40;86.30
53268;DHT22;39156;51.176;6.738;2023-12-29T15:47:59;10.50;86.40